createdAt,value
2023-05-23T00:01:55.332Z,3.40
2023-05-23T00:04:27.451Z,3.10
2023-05-23T00:06:55.208Z,3.20
2023-05-23T00:09:22.917Z,3.10
2023-05-23T00:11:50.671Z,2.90
2023-05-23T00:14:18.650Z,3.50
2023-05-23T00:16:46.963Z,3.00
2023-05-23T00:19:17.609Z,2.80
2023-05-23T00:21:49.932Z,3.10
2023-05-23T00:24:20.723Z,3.30
2023-05-23T00:26:48.492Z,3.90
2023-05-23T00:29:16.972Z,3.70
2023-05-23T00:31:47.606Z,4.30
2023-05-23T00:34:15.833Z,3.90
2023-05-23T00:36:44.072Z,3.30
2023-05-23T00:39:19.805Z,3.40
2023-05-23T00:41:52.940Z,3.10
2023-05-23T00:44:22.096Z,3.60
2023-05-23T00:46:52.837Z,3.30
2023-05-23T00:49:20.811Z,3.40
2023-05-23T00:51:50.053Z,3.60
2023-05-23T00:54:29.213Z,4.20
2023-05-23T00:56:57.041Z,3.60
2023-05-23T00:59:25.170Z,3.50
2023-05-23T01:01:53.182Z,3.20
2023-05-23T01:04:20.823Z,4.00
2023-05-23T01:06:49.579Z,2.80
2023-05-23T01:09:17.306Z,3.20
2023-05-23T01:12:13.148Z,3.80
2023-05-23T01:15:03.610Z,3.40
2023-05-23T01:17:37.419Z,3.70
2023-05-23T01:20:10.256Z,3.60
2023-05-23T01:23:02.691Z,3.90
2023-05-23T01:25:50.430Z,4.10
2023-05-23T01:28:20.612Z,3.40
2023-05-23T01:30:49.027Z,3.10
2023-05-23T01:33:17.673Z,3.10
2023-05-23T01:35:45.294Z,2.70
2023-05-23T01:38:12.878Z,2.80
2023-05-23T01:40:40.485Z,3.00
2023-05-23T01:43:10.657Z,2.80
2023-05-23T01:45:38.416Z,3.30
2023-05-23T01:48:06.508Z,3.20
2023-05-23T01:50:34.251Z,3.60
2023-05-23T01:53:01.892Z,3.30
2023-05-23T01:55:29.569Z,3.00
2023-05-23T01:57:57.341Z,3.80
2023-05-23T02:00:25.253Z,3.70
2023-05-23T02:02:53.194Z,5.30
2023-05-23T02:05:20.988Z,5.10
2023-05-23T02:07:48.695Z,6.20
2023-05-23T02:10:19.099Z,5.90
2023-05-23T02:12:46.718Z,7.70
2023-05-23T02:15:14.335Z,6.60
2023-05-23T02:17:43.304Z,6.00
2023-05-23T02:20:11.526Z,6.20
2023-05-23T02:22:39.102Z,6.40
2023-05-23T02:25:07.690Z,5.90
2023-05-23T02:27:35.449Z,5.90
2023-05-23T02:30:03.207Z,6.20
2023-05-23T02:32:30.794Z,5.80
2023-05-23T02:34:58.448Z,5.90
2023-05-23T02:37:26.001Z,5.70
2023-05-23T02:39:54.118Z,5.10
2023-05-23T02:42:22.543Z,5.40
2023-05-23T02:44:50.629Z,5.90
2023-05-23T02:47:18.798Z,5.60
2023-05-23T02:49:46.447Z,5.90
2023-05-23T02:52:14.259Z,5.70
2023-05-23T02:54:42.058Z,5.70
2023-05-23T02:57:10.724Z,6.10
2023-05-23T02:59:39.673Z,5.70
2023-05-23T03:02:07.615Z,5.60
2023-05-23T03:04:35.244Z,5.60
2023-05-23T03:07:05.405Z,5.10
2023-05-23T03:09:35.593Z,5.00
2023-05-23T03:12:04.901Z,4.60
2023-05-23T03:14:32.858Z,4.70
2023-05-23T03:17:00.767Z,4.60
2023-05-23T03:19:31.600Z,5.10
2023-05-23T03:22:00.195Z,5.00
2023-05-23T03:24:27.769Z,5.10
2023-05-23T03:26:55.331Z,4.80
2023-05-23T03:29:24.324Z,4.30
2023-05-23T03:31:51.827Z,4.30
2023-05-23T03:34:19.420Z,4.60
2023-05-23T03:36:46.954Z,4.40
2023-05-23T03:39:14.636Z,4.40
2023-05-23T03:41:42.218Z,4.80
2023-05-23T03:44:10.175Z,5.40
2023-05-23T03:46:39.634Z,5.90
2023-05-23T03:49:07.926Z,5.60
2023-05-23T03:51:36.347Z,5.40
2023-05-23T03:54:04.052Z,6.10
2023-05-23T03:56:31.769Z,4.80
2023-05-23T03:58:59.489Z,4.80
2023-05-23T04:01:27.972Z,5.40
2023-05-23T04:03:55.685Z,5.50
2023-05-23T04:06:24.791Z,5.20
2023-05-23T04:08:52.475Z,5.50
2023-05-23T04:11:20.177Z,4.70
2023-05-23T04:13:48.494Z,5.40
2023-05-23T04:16:17.338Z,4.80
2023-05-23T04:18:47.618Z,5.10
2023-05-23T04:21:15.529Z,5.10
2023-05-23T04:23:52.164Z,4.90
2023-05-23T04:26:20.669Z,4.90
2023-05-23T04:28:54.504Z,4.80
2023-05-23T04:31:23.190Z,4.50
2023-05-23T04:33:52.075Z,4.70
2023-05-23T04:36:20.649Z,4.60
2023-05-23T04:38:52.812Z,4.30
2023-05-23T04:41:23.911Z,4.60
2023-05-23T04:44:10.387Z,4.20
2023-05-23T04:46:46.604Z,4.30
2023-05-23T04:49:23.066Z,4.10
2023-05-23T04:51:52.771Z,4.60
2023-05-23T04:54:25.938Z,4.80
2023-05-23T04:56:54.948Z,5.00
2023-05-23T04:59:24.926Z,6.00
2023-05-23T05:01:53.047Z,6.30
2023-05-23T05:04:22.354Z,5.40
2023-05-23T05:06:51.022Z,5.60
2023-05-23T05:09:19.293Z,5.80
2023-05-23T05:11:47.426Z,7.20
2023-05-23T05:14:15.689Z,7.80
2023-05-23T05:16:44.420Z,8.10
2023-05-23T05:19:12.883Z,6.80
2023-05-23T05:21:41.047Z,6.20
2023-05-23T05:24:09.894Z,6.40
2023-05-23T05:26:37.581Z,5.70
2023-05-23T05:29:06.210Z,4.50
2023-05-23T05:31:36.218Z,5.00
2023-05-23T05:34:04.978Z,5.20
2023-05-23T05:36:33.698Z,5.10
2023-05-23T05:39:02.229Z,5.10
2023-05-23T05:41:29.796Z,5.50
2023-05-23T05:43:57.399Z,4.10
2023-05-23T05:46:25.574Z,4.90
2023-05-23T05:48:53.898Z,4.90
2023-05-23T05:51:22.527Z,5.80
2023-05-23T05:53:50.181Z,5.00
2023-05-23T05:56:17.971Z,4.90
2023-05-23T05:58:45.966Z,4.20
2023-05-23T06:01:16.434Z,5.20
2023-05-23T06:03:45.230Z,4.60
2023-05-23T06:06:16.452Z,4.50
2023-05-23T06:08:44.145Z,5.80
2023-05-23T06:11:15.200Z,4.50
2023-05-23T06:13:43.008Z,4.80
2023-05-23T06:16:11.194Z,4.70
2023-05-23T06:18:42.468Z,5.20
2023-05-23T06:21:10.923Z,4.60
2023-05-23T06:23:44.767Z,4.60
2023-05-23T06:26:12.368Z,4.50
2023-05-23T06:28:40.359Z,4.70
2023-05-23T06:31:10.477Z,5.70
2023-05-23T06:33:38.508Z,7.40
2023-05-23T06:36:06.519Z,8.10
2023-05-23T06:38:34.037Z,7.90
2023-05-23T06:41:02.548Z,5.40
2023-05-23T06:43:30.962Z,4.10
2023-05-23T06:46:14.218Z,4.90
2023-05-23T06:48:42.470Z,5.20
2023-05-23T06:51:11.446Z,4.90
2023-05-23T06:53:39.480Z,4.60
2023-05-23T06:56:07.724Z,4.90
2023-05-23T06:58:42.057Z,5.10
2023-05-23T07:01:11.170Z,4.90
2023-05-23T07:03:46.190Z,5.10
2023-05-23T07:06:14.390Z,4.60
2023-05-23T07:08:42.554Z,4.70
2023-05-23T07:11:10.616Z,4.60
2023-05-23T07:13:40.562Z,4.60
2023-05-23T07:16:10.644Z,5.50
2023-05-23T07:18:43.613Z,4.60
2023-05-23T07:21:11.298Z,5.00
2023-05-23T07:23:41.263Z,5.20
2023-05-23T07:26:12.746Z,5.20
2023-05-23T07:28:58.765Z,5.10
2023-05-23T07:31:26.895Z,5.10
2023-05-23T07:33:57.076Z,5.40
2023-05-23T07:36:42.609Z,6.00
2023-05-23T07:39:11.726Z,5.60
2023-05-23T07:41:40.191Z,4.90
2023-05-23T07:44:07.819Z,6.30
2023-05-23T07:46:36.495Z,5.80
2023-05-23T07:49:04.477Z,5.70
2023-05-23T07:51:32.765Z,5.60
2023-05-23T07:54:00.395Z,5.20
2023-05-23T07:56:28.254Z,5.70
2023-05-23T07:58:58.358Z,5.40
2023-05-23T08:01:29.081Z,5.90
2023-05-23T08:03:56.784Z,6.50
2023-05-23T08:06:30.168Z,5.80
2023-05-23T08:08:59.832Z,5.90
2023-05-23T08:11:30.470Z,7.10
2023-05-23T08:14:01.372Z,6.20
2023-05-23T08:16:38.441Z,5.70
2023-05-23T08:19:13.701Z,5.60
2023-05-23T08:21:41.975Z,6.00
2023-05-23T08:24:09.690Z,5.70
2023-05-23T08:26:37.776Z,5.50
2023-05-23T08:29:06.583Z,5.50
2023-05-23T08:31:37.193Z,5.40
2023-05-23T08:34:05.528Z,4.80
2023-05-23T08:36:37.564Z,4.90
2023-05-23T08:39:07.774Z,5.50
2023-05-23T08:41:39.969Z,5.80
2023-05-23T08:44:10.950Z,5.40
2023-05-23T08:46:46.587Z,5.20
2023-05-23T08:49:20.720Z,4.60
2023-05-23T08:51:48.321Z,6.90
2023-05-23T08:54:22.424Z,7.10
2023-05-23T08:56:50.514Z,5.60
2023-05-23T08:59:18.509Z,6.20
2023-05-23T09:01:46.417Z,5.60
2023-05-23T09:04:14.825Z,5.50
2023-05-23T09:06:56.180Z,5.70
2023-05-23T09:09:24.094Z,4.70
2023-05-23T09:11:52.216Z,5.10
2023-05-23T09:14:20.374Z,4.80
2023-05-23T09:16:49.471Z,5.00
2023-05-23T09:19:18.763Z,5.00
2023-05-23T09:21:51.287Z,4.50
2023-05-23T09:24:36.256Z,4.50
2023-05-23T09:27:07.783Z,4.80
2023-05-23T09:29:40.051Z,4.60
2023-05-23T09:32:11.955Z,5.30
2023-05-23T09:35:04.387Z,5.50
2023-05-23T09:37:36.508Z,5.90
2023-05-23T09:40:10.735Z,4.00
2023-05-23T09:42:45.914Z,4.90
2023-05-23T09:45:14.036Z,4.30
2023-05-23T09:47:52.222Z,4.50
2023-05-23T09:50:21.101Z,4.60
2023-05-23T09:52:49.461Z,4.70
2023-05-23T09:55:17.212Z,4.60
2023-05-23T09:57:45.893Z,4.30
2023-05-23T10:00:17.601Z,4.90
2023-05-23T10:03:13.301Z,4.60
2023-05-23T10:05:48.176Z,4.40
2023-05-23T10:08:30.159Z,4.20
2023-05-23T10:10:57.846Z,4.40
2023-05-23T10:13:29.052Z,4.40
2023-05-23T10:16:38.178Z,6.00
2023-05-23T10:19:26.233Z,4.40
2023-05-23T10:22:02.906Z,4.40
2023-05-23T10:24:30.656Z,4.70
2023-05-23T10:26:58.510Z,4.20
2023-05-23T10:29:26.587Z,4.20
2023-05-23T10:31:54.150Z,3.80
2023-05-23T10:34:40.778Z,4.10
2023-05-23T10:37:08.635Z,4.40
2023-05-23T10:39:54.923Z,4.20
2023-05-23T10:42:22.495Z,4.40
2023-05-23T10:44:50.246Z,5.10
2023-05-23T10:47:26.839Z,4.60
2023-05-23T10:49:55.701Z,4.20
2023-05-23T10:52:26.641Z,4.30
2023-05-23T10:54:54.893Z,4.00
2023-05-23T10:57:23.616Z,4.40
2023-05-23T10:59:51.737Z,4.60
2023-05-23T11:02:20.466Z,4.80
2023-05-23T11:04:48.806Z,4.90
2023-05-23T11:07:30.237Z,4.40
2023-05-23T11:10:24.268Z,4.50
2023-05-23T11:12:51.901Z,4.30
2023-05-23T11:15:22.537Z,4.70
2023-05-23T11:17:54.613Z,4.60
2023-05-23T11:20:26.636Z,4.50
2023-05-23T11:23:01.815Z,3.90
2023-05-23T11:25:41.251Z,4.60
2023-05-23T11:28:09.567Z,4.10
2023-05-23T11:30:37.745Z,4.40
2023-05-23T11:33:10.992Z,4.20
2023-05-23T11:35:38.552Z,3.90
2023-05-23T11:38:07.425Z,4.00
2023-05-23T11:40:41.746Z,4.40
2023-05-23T11:43:12.323Z,4.10
2023-05-23T11:45:40.049Z,4.60
2023-05-23T11:48:08.421Z,4.70
2023-05-23T11:50:49.498Z,3.70
2023-05-23T11:53:19.346Z,4.10
2023-05-23T11:55:55.490Z,4.20
2023-05-23T11:58:28.303Z,3.80
2023-05-23T12:01:04.425Z,3.80
2023-05-23T12:03:32.625Z,4.00
2023-05-23T12:06:01.099Z,3.70
2023-05-23T12:08:28.657Z,4.30
2023-05-23T12:10:59.916Z,3.60
2023-05-23T12:13:30.625Z,3.60
2023-05-23T12:16:01.531Z,3.60
2023-05-23T12:18:31.064Z,3.10
2023-05-23T12:21:10.688Z,3.50
2023-05-23T12:23:39.822Z,3.40
2023-05-23T12:26:07.847Z,3.10
2023-05-23T12:28:39.433Z,3.80
2023-05-23T12:31:16.757Z,3.90
2023-05-23T12:33:45.509Z,3.90
2023-05-23T12:36:13.184Z,3.30
2023-05-23T12:38:41.133Z,3.90
2023-05-23T12:41:13.476Z,3.20
2023-05-23T12:43:41.406Z,3.10
2023-05-23T12:46:09.194Z,3.70
2023-05-23T12:48:37.066Z,2.90
2023-05-23T12:51:05.144Z,2.90
2023-05-23T12:53:32.744Z,2.80
2023-05-23T12:56:00.750Z,3.00
2023-05-23T12:58:31.113Z,2.90
2023-05-23T13:00:59.318Z,3.30
2023-05-23T13:03:27.037Z,3.30
2023-05-23T13:05:54.711Z,3.00
2023-05-23T13:08:22.806Z,3.00
2023-05-23T13:10:50.549Z,3.40
2023-05-23T13:13:18.167Z,3.10
2023-05-23T13:15:47.291Z,3.30
2023-05-23T13:18:15.872Z,3.50
2023-05-23T13:20:43.783Z,2.80
2023-05-23T13:23:11.474Z,4.60
2023-05-23T13:25:39.458Z,2.90
2023-05-23T13:28:07.173Z,2.90
2023-05-23T13:30:34.791Z,3.20
2023-05-23T13:33:02.647Z,3.30
2023-05-23T13:35:30.430Z,4.70
2023-05-23T13:37:58.102Z,2.60
2023-05-23T13:40:25.940Z,3.20
2023-05-23T13:42:53.567Z,3.20
2023-05-23T13:45:23.226Z,2.90
2023-05-23T13:47:51.215Z,3.00
2023-05-23T13:50:19.633Z,3.10
2023-05-23T13:52:49.593Z,2.10
2023-05-23T13:57:47.821Z,2.50
2023-05-23T14:00:16.512Z,2.10
2023-05-23T14:02:44.211Z,2.60
2023-05-23T14:05:11.908Z,2.80
2023-05-23T14:07:39.646Z,2.50
2023-05-23T14:10:09.443Z,2.70
2023-05-23T14:12:37.997Z,2.20
2023-05-23T14:15:05.999Z,2.50
2023-05-23T14:17:33.661Z,2.10
2023-05-23T14:20:01.380Z,2.80
2023-05-23T14:22:29.014Z,2.20
2023-05-23T14:24:57.641Z,1.80
2023-05-23T14:27:25.565Z,2.10
2023-05-23T14:29:53.183Z,1.90
2023-05-23T14:32:21.165Z,2.20
2023-05-23T14:34:48.843Z,2.90
2023-05-23T14:37:16.470Z,3.20
2023-05-23T14:39:44.156Z,2.50
2023-05-23T14:42:11.976Z,2.50
2023-05-23T14:44:39.794Z,2.70
2023-05-23T14:47:07.419Z,2.70
2023-05-23T14:49:35.156Z,3.00
2023-05-23T14:52:02.827Z,2.80
2023-05-23T14:54:30.446Z,2.50
2023-05-23T14:56:58.188Z,2.90
2023-05-23T14:59:25.944Z,3.60
2023-05-23T15:01:53.685Z,3.50
2023-05-23T15:04:21.525Z,3.30
2023-05-23T15:06:50.878Z,3.10
2023-05-23T15:09:18.494Z,3.40
2023-05-23T15:11:47.251Z,3.00
2023-05-23T15:14:15.106Z,2.90
2023-05-23T15:16:44.704Z,3.30
2023-05-23T15:19:12.436Z,2.70
2023-05-23T15:21:46.386Z,2.90
2023-05-23T15:24:17.926Z,2.90
2023-05-23T15:26:45.709Z,2.70
2023-05-23T15:29:16.012Z,2.80
2023-05-23T15:31:45.223Z,3.00
2023-05-23T15:34:13.522Z,2.90
2023-05-23T15:36:41.393Z,3.20
2023-05-23T15:39:13.959Z,3.00
2023-05-23T15:41:41.698Z,3.00
2023-05-23T15:44:09.652Z,3.30
2023-05-23T15:46:37.720Z,3.50
2023-05-23T15:49:13.739Z,3.30
2023-05-23T15:51:54.075Z,3.80
2023-05-23T15:54:21.734Z,3.70
2023-05-23T15:56:49.547Z,4.00
2023-05-23T15:59:17.418Z,4.10
2023-05-23T16:01:45.130Z,3.50
2023-05-23T16:04:13.075Z,3.70
2023-05-23T16:06:40.783Z,4.90
2023-05-23T16:09:08.490Z,4.00
2023-05-23T16:11:36.298Z,3.80
2023-05-23T16:14:04.858Z,3.60
2023-05-23T16:16:33.061Z,3.40
2023-05-23T16:19:00.892Z,2.90
2023-05-23T16:21:28.739Z,3.40
2023-05-23T16:23:57.434Z,3.10
2023-05-23T16:26:27.152Z,2.80
2023-05-23T16:28:54.973Z,2.50
2023-05-23T16:31:26.934Z,2.70
2023-05-23T16:33:54.566Z,2.30
2023-05-23T16:36:23.650Z,2.00
2023-05-23T16:38:52.963Z,1.90
2023-05-23T16:41:22.389Z,2.20
2023-05-23T16:43:49.935Z,2.20
2023-05-23T16:46:20.311Z,1.70
2023-05-23T16:51:16.449Z,1.80
2023-05-23T16:53:45.428Z,2.10
2023-05-23T16:56:13.296Z,2.40
2023-05-23T16:58:41.938Z,2.90
2023-05-23T17:01:09.727Z,3.10
2023-05-23T17:03:37.726Z,3.30
2023-05-23T17:06:05.920Z,3.40
2023-05-23T17:08:33.533Z,3.80
2023-05-23T17:11:01.298Z,3.90
2023-05-23T17:13:28.970Z,3.50
2023-05-23T17:15:56.800Z,3.60
2023-05-23T17:18:24.528Z,3.50
2023-05-23T17:20:52.132Z,4.10
2023-05-23T17:23:19.866Z,3.60
2023-05-23T17:25:47.718Z,4.30
2023-05-23T17:28:15.274Z,4.00
2023-05-23T17:30:42.993Z,4.40
2023-05-23T17:33:13.405Z,3.50
2023-05-23T17:35:41.290Z,3.50
2023-05-23T17:38:09.142Z,3.90
2023-05-23T17:40:36.795Z,4.90
2023-05-23T17:43:04.459Z,4.30
2023-05-23T17:45:32.218Z,3.60
2023-05-23T17:48:03.631Z,4.10
2023-05-23T17:50:31.744Z,4.60
2023-05-23T17:52:59.551Z,4.00
2023-05-23T17:55:27.857Z,3.80
2023-05-23T17:57:55.566Z,4.80
2023-05-23T18:00:23.208Z,5.40
2023-05-23T18:02:51.983Z,6.90
2023-05-23T18:05:20.945Z,5.20
2023-05-23T18:07:48.654Z,4.10
2023-05-23T18:10:17.070Z,3.90
2023-05-23T18:12:44.831Z,3.30
2023-05-23T18:15:13.527Z,3.40
2023-05-23T18:17:41.828Z,3.40
2023-05-23T18:20:09.910Z,3.90
2023-05-23T18:22:37.669Z,7.10
2023-05-23T18:25:06.974Z,6.90
2023-05-23T18:27:34.623Z,4.70
2023-05-23T18:30:02.531Z,4.70
2023-05-23T18:32:31.572Z,5.50
2023-05-23T18:34:59.163Z,5.50
2023-05-23T18:37:27.188Z,5.70
2023-05-23T18:39:58.389Z,4.20
2023-05-23T18:42:26.036Z,4.30
2023-05-23T18:44:53.667Z,4.20
2023-05-23T18:47:21.722Z,5.00
2023-05-23T18:49:49.942Z,4.80
2023-05-23T18:52:17.597Z,4.10
2023-05-23T18:54:45.261Z,4.90
2023-05-23T18:57:12.952Z,5.00
2023-05-23T18:59:40.640Z,4.60
2023-05-23T19:02:08.424Z,3.70
2023-05-23T19:04:36.241Z,4.00
2023-05-23T19:07:03.883Z,4.10
2023-05-23T19:09:31.505Z,3.80
2023-05-23T19:11:59.437Z,4.00
2023-05-23T19:14:27.068Z,4.10
2023-05-23T19:16:55.268Z,4.20
2023-05-23T19:19:23.043Z,4.90
2023-05-23T19:21:51.238Z,4.40
2023-05-23T19:24:18.918Z,4.70
2023-05-23T19:26:46.749Z,5.00
2023-05-23T19:29:14.373Z,4.60
2023-05-23T19:31:42.441Z,4.30
2023-05-23T19:34:10.314Z,4.40
2023-05-23T19:36:38.188Z,5.00
2023-05-23T19:39:05.835Z,4.00
2023-05-23T19:41:33.436Z,4.00
2023-05-23T19:44:01.993Z,4.60
2023-05-23T19:46:29.794Z,6.10
2023-05-23T19:49:01.061Z,5.90
2023-05-23T19:51:29.259Z,6.00
2023-05-23T19:53:57.085Z,7.00
2023-05-23T19:56:26.008Z,5.80
2023-05-23T19:58:53.953Z,6.70
2023-05-23T20:01:22.124Z,6.60
2023-05-23T20:03:50.559Z,5.50
2023-05-23T20:06:18.900Z,6.00
2023-05-23T20:08:47.850Z,6.50
2023-05-23T20:11:15.611Z,6.60
2023-05-23T20:13:43.114Z,7.80
2023-05-23T20:16:10.986Z,7.40
2023-05-23T20:18:38.620Z,8.20
2023-05-23T20:21:06.778Z,7.50
2023-05-23T20:23:34.386Z,7.00
2023-05-23T20:26:02.100Z,7.00
2023-05-23T20:28:30.131Z,6.20
2023-05-23T20:30:58.488Z,6.90
2023-05-23T20:33:26.289Z,6.50
2023-05-23T20:35:54.259Z,6.20
2023-05-23T20:38:21.841Z,6.20
2023-05-23T20:40:52.106Z,5.60
2023-05-23T20:43:20.633Z,6.10
2023-05-23T20:45:48.646Z,6.60
2023-05-23T20:48:17.702Z,6.70
2023-05-23T20:50:45.783Z,6.50
2023-05-23T20:53:13.335Z,6.90
2023-05-23T20:55:41.151Z,7.30
2023-05-23T20:58:09.007Z,7.30
2023-05-23T21:00:36.599Z,7.50
2023-05-23T21:03:04.529Z,8.60
2023-05-23T21:05:32.183Z,9.50
2023-05-23T21:07:59.977Z,9.00
2023-05-23T21:10:27.618Z,8.40
2023-05-23T21:12:55.723Z,9.70
2023-05-23T21:15:23.295Z,8.10
2023-05-23T21:17:51.699Z,10.30
2023-05-23T21:20:22.465Z,9.30
2023-05-23T21:22:50.129Z,8.90
2023-05-23T21:25:17.914Z,9.40
2023-05-23T21:27:45.745Z,8.40
2023-05-23T21:30:15.591Z,8.60
2023-05-23T21:32:43.839Z,8.60
2023-05-23T21:35:11.591Z,8.40
2023-05-23T21:37:39.128Z,8.70
2023-05-23T21:40:07.394Z,8.20
2023-05-23T21:42:34.988Z,7.90
2023-05-23T21:45:04.837Z,9.50
2023-05-23T21:47:32.487Z,9.10
2023-05-23T21:50:00.139Z,9.40
2023-05-23T21:52:27.891Z,10.10
2023-05-23T21:54:55.467Z,10.70
2023-05-23T21:57:23.022Z,10.40
2023-05-23T21:59:50.563Z,10.90
2023-05-23T22:02:18.488Z,10.20
2023-05-23T22:04:46.364Z,11.80
2023-05-23T22:07:14.057Z,10.20
2023-05-23T22:09:41.777Z,11.10
2023-05-23T22:12:09.412Z,11.00
2023-05-23T22:14:37.149Z,10.70
2023-05-23T22:17:04.875Z,10.90
2023-05-23T22:19:32.523Z,11.30
2023-05-23T22:22:00.531Z,10.70
2023-05-23T22:24:29.398Z,10.20
2023-05-23T22:26:58.640Z,10.20
2023-05-23T22:29:26.497Z,10.20
2023-05-23T22:31:54.165Z,9.90
2023-05-23T22:34:21.772Z,11.80
2023-05-23T22:36:49.595Z,12.10
2023-05-23T22:39:17.439Z,12.70
2023-05-23T22:41:45.056Z,12.80
2023-05-23T22:44:12.566Z,12.30
2023-05-23T22:46:42.970Z,12.30
2023-05-23T22:49:10.547Z,9.90
2023-05-23T22:51:38.164Z,10.90
2023-05-23T22:54:05.747Z,10.10
2023-05-23T22:56:33.515Z,10.10
2023-05-23T22:59:01.252Z,10.10
2023-05-23T23:01:28.902Z,10.10
2023-05-23T23:03:56.594Z,9.70
2023-05-23T23:06:24.137Z,9.00
2023-05-23T23:08:52.004Z,7.90
2023-05-23T23:11:19.784Z,7.50
2023-05-23T23:13:47.320Z,8.20
2023-05-23T23:16:14.847Z,8.20
2023-05-23T23:18:42.432Z,7.90
2023-05-23T23:21:10.029Z,8.60
2023-05-23T23:23:38.538Z,10.10
2023-05-23T23:26:06.128Z,8.70
2023-05-23T23:28:33.930Z,9.60
2023-05-23T23:31:01.647Z,8.20
2023-05-23T23:33:29.251Z,8.50
2023-05-23T23:35:57.990Z,8.50
2023-05-23T23:38:25.994Z,9.40
2023-05-23T23:40:54.385Z,9.50
2023-05-23T23:43:22.295Z,9.50
2023-05-23T23:45:49.864Z,11.00
2023-05-23T23:48:17.540Z,11.00
2023-05-23T23:50:45.212Z,10.60
2023-05-23T23:53:12.849Z,10.70
2023-05-23T23:55:40.488Z,10.30
2023-05-23T23:58:08.020Z,10.30
